createdAt,value
2018-03-21T13:08:10.458Z,256.00
2018-03-21T13:09:10.381Z,256.00
2018-03-21T13:10:09.972Z,240.00
2018-03-21T13:11:09.932Z,244.00
2018-03-21T13:12:09.929Z,264.00
2018-03-21T13:13:09.914Z,252.00
2018-03-21T13:14:09.863Z,248.00
2018-03-21T13:15:14.565Z,232.00
2018-03-21T13:16:09.802Z,216.00
2018-03-21T13:17:09.782Z,244.00
2018-03-21T13:18:09.765Z,240.00
2018-03-21T13:19:10.560Z,244.00
2018-03-21T13:20:10.584Z,248.00
2018-03-21T13:21:09.719Z,260.00
2018-03-21T13:22:09.663Z,260.00
2018-03-21T13:23:09.647Z,256.00
2018-03-21T13:24:10.556Z,260.00
2018-03-21T13:25:09.597Z,260.00
2018-03-21T13:26:09.656Z,256.00
2018-03-21T13:27:09.533Z,256.00
2018-03-21T13:28:09.515Z,260.00
2018-03-21T13:29:09.523Z,260.00
2018-03-21T13:30:10.078Z,260.00
2018-03-21T13:31:10.106Z,248.00
2018-03-21T13:32:10.079Z,244.00
2018-03-21T13:33:09.416Z,248.00
2018-03-21T13:34:09.409Z,244.00
2018-03-21T13:35:09.354Z,248.00
2018-03-21T13:36:09.315Z,252.00
2018-03-21T13:37:10.116Z,248.00
2018-03-21T13:38:09.294Z,248.00
2018-03-21T13:39:09.246Z,248.00
2018-03-21T13:40:09.280Z,252.00
2018-03-21T13:41:09.246Z,252.00
2018-03-21T13:42:09.166Z,248.00
2018-03-21T13:43:09.171Z,248.00
2018-03-21T13:44:09.154Z,248.00
2018-03-21T13:45:09.130Z,252.00
2018-03-21T13:46:09.092Z,248.00
2018-03-21T13:47:09.046Z,252.00
2018-03-21T13:48:09.048Z,248.00
2018-03-21T13:49:08.992Z,252.00
2018-03-21T13:50:08.978Z,252.00
2018-03-21T13:51:10.562Z,248.00
2018-03-21T13:52:09.577Z,252.00
2018-03-21T13:53:08.915Z,248.00
2018-03-21T13:55:11.055Z,252.00
2018-03-21T13:56:09.825Z,252.00
2018-03-21T13:57:09.848Z,252.00
2018-03-21T13:58:08.810Z,256.00
2018-03-21T13:59:08.971Z,260.00
2018-03-21T14:00:09.031Z,260.00
2018-03-21T14:01:08.737Z,248.00
2018-03-21T14:02:09.530Z,272.00
2018-03-21T14:03:08.650Z,276.00
2018-03-21T14:04:08.605Z,272.00
2018-03-21T14:05:08.587Z,276.00
2018-03-21T14:07:41.472Z,220.00
2018-03-21T14:08:41.217Z,288.00
2018-03-21T14:09:41.164Z,276.00
2018-03-21T14:10:41.147Z,276.00
2018-03-21T14:11:41.144Z,152.00
2018-03-21T14:12:41.100Z,128.00
2018-03-21T14:13:41.066Z,140.00
2018-03-21T14:14:42.042Z,168.00
2018-03-21T14:15:41.968Z,176.00
2018-03-21T14:16:41.008Z,236.00
2018-03-21T14:18:41.465Z,224.00
2018-03-21T14:19:40.954Z,268.00
2018-03-21T14:20:40.914Z,196.00
2018-03-21T14:21:42.792Z,148.00
2018-03-21T14:22:40.861Z,140.00
2018-03-21T14:23:40.826Z,156.00
2018-03-21T14:24:41.810Z,296.00
2018-03-21T14:25:40.808Z,148.00
2018-03-21T14:26:40.807Z,128.00
2018-03-21T14:27:40.739Z,164.00
2018-03-21T14:28:40.750Z,164.00
2018-03-21T14:29:41.592Z,204.00
2018-03-21T14:30:40.732Z,200.00
2018-03-21T14:31:41.535Z,180.00
2018-03-21T14:32:40.629Z,180.00
2018-03-21T14:33:41.612Z,216.00
2018-03-21T14:34:40.588Z,196.00
2018-03-21T14:35:40.557Z,228.00
2018-03-21T14:36:40.526Z,200.00
2018-03-21T14:37:40.519Z,140.00
2018-03-21T14:38:41.151Z,132.00
2018-03-21T14:39:40.595Z,212.00
2018-03-21T14:40:40.438Z,264.00
2018-03-21T14:41:40.441Z,256.00
2018-03-21T14:42:42.296Z,212.00
2018-03-21T14:43:42.040Z,264.00
2018-03-21T14:44:41.307Z,276.00
2018-03-21T14:45:40.361Z,272.00
2018-03-21T14:46:40.416Z,272.00
2018-03-21T14:47:40.271Z,280.00
2018-03-21T14:48:40.255Z,272.00
2018-03-21T14:49:42.024Z,280.00
2018-03-21T14:50:40.205Z,284.00
2018-03-21T14:51:41.036Z,264.00
2018-03-21T14:52:40.200Z,156.00
2018-03-21T16:26:50.074Z,120.00
2018-03-21T16:27:49.875Z,120.00
2018-03-21T16:28:49.839Z,120.00
2018-03-21T16:29:49.803Z,120.00
2018-03-21T16:30:49.795Z,120.00
2018-03-21T16:31:49.761Z,120.00
2018-03-21T16:32:49.741Z,116.00
2018-03-21T16:33:49.721Z,116.00
2018-03-21T16:34:49.714Z,116.00
2018-03-21T16:35:49.657Z,116.00
2018-03-21T16:36:50.527Z,116.00
2018-03-21T16:37:49.680Z,112.00
2018-03-21T16:38:50.448Z,108.00
2018-03-21T16:39:49.585Z,112.00
2018-03-21T16:40:49.574Z,108.00
2018-03-21T16:41:49.536Z,112.00
2018-03-21T16:42:49.509Z,108.00
2018-03-21T16:43:49.491Z,108.00
2018-03-21T16:44:49.461Z,104.00
2018-03-21T16:45:49.446Z,104.00
2018-03-21T16:46:49.457Z,104.00
2018-03-21T16:47:49.479Z,92.00
2018-03-21T16:48:49.364Z,92.00
2018-03-21T16:49:49.352Z,92.00
2018-03-21T16:50:49.340Z,88.00
2018-03-21T16:51:51.347Z,88.00
2018-03-21T16:52:49.321Z,88.00
2018-03-21T16:53:49.276Z,88.00
2018-03-21T16:54:49.243Z,84.00
2018-03-21T16:55:49.242Z,84.00
2018-03-21T16:56:49.949Z,84.00
2018-03-21T16:57:49.195Z,84.00
2018-03-21T16:58:50.257Z,84.00
2018-03-21T16:59:49.129Z,88.00
2018-03-21T17:00:49.138Z,88.00
2018-03-21T17:01:49.125Z,84.00
2018-03-21T17:02:49.060Z,84.00
2018-03-21T17:03:49.025Z,76.00
2018-03-21T17:04:49.035Z,80.00
2018-03-21T17:05:48.978Z,84.00
2018-03-21T17:06:48.956Z,76.00
2018-03-21T17:07:48.962Z,80.00
2018-03-21T17:08:49.473Z,80.00
2018-03-21T17:09:48.925Z,76.00
2018-03-21T17:10:48.900Z,80.00
2018-03-21T17:11:48.847Z,76.00
2018-03-21T17:12:48.844Z,76.00
2018-03-21T17:13:48.803Z,68.00
2018-03-21T17:14:48.767Z,68.00
2018-03-21T17:15:48.754Z,68.00
2018-03-21T17:16:48.723Z,68.00
2018-03-21T17:17:48.706Z,68.00
2018-03-21T17:18:48.745Z,64.00
2018-03-21T17:19:49.467Z,64.00
2018-03-21T17:20:50.241Z,64.00
2018-03-21T17:21:48.629Z,64.00
2018-03-21T17:22:48.608Z,60.00
2018-03-21T17:23:48.585Z,64.00
2018-03-21T17:24:48.567Z,60.00
2018-03-21T17:25:48.540Z,60.00
2018-03-21T17:26:48.522Z,60.00
2018-03-21T17:27:48.465Z,60.00
2018-03-21T17:28:48.460Z,60.00
2018-03-21T17:29:48.423Z,60.00
2018-03-21T17:30:48.399Z,60.00
2018-03-21T17:31:48.401Z,60.00
2018-03-21T17:32:48.372Z,56.00
2018-03-21T17:33:48.333Z,60.00
2018-03-21T17:34:48.321Z,60.00
2018-03-21T17:35:48.302Z,60.00
2018-03-21T17:36:48.253Z,56.00
2018-03-21T17:37:48.230Z,56.00
2018-03-21T17:38:48.225Z,56.00
2018-03-21T17:39:48.191Z,56.00
2018-03-21T17:40:48.971Z,56.00
2018-03-21T17:41:48.167Z,56.00
2018-03-21T17:42:48.224Z,56.00
2018-03-21T17:43:48.091Z,52.00
2018-03-21T17:44:48.082Z,56.00
2018-03-21T17:45:48.092Z,56.00
2018-03-21T17:46:48.004Z,60.00
2018-03-21T17:47:47.992Z,56.00
2018-03-21T17:48:47.979Z,56.00
2018-03-21T17:49:47.955Z,56.00
2018-03-21T17:50:47.944Z,56.00
2018-03-21T17:51:47.910Z,52.00
2018-03-21T17:52:47.909Z,52.00
2018-03-21T17:53:47.893Z,52.00
2018-03-21T17:54:47.853Z,48.00
2018-03-21T17:55:48.490Z,52.00
2018-03-21T17:56:48.476Z,48.00
2018-03-21T17:57:48.479Z,52.00
2018-03-21T17:58:48.040Z,52.00
2018-03-21T17:59:47.718Z,48.00
2018-03-21T18:00:47.715Z,48.00
2018-03-21T18:01:47.680Z,44.00
2018-03-21T18:02:48.500Z,48.00
2018-03-21T18:03:48.496Z,48.00
2018-03-21T18:04:47.678Z,48.00
2018-03-21T18:05:47.567Z,48.00
2018-03-21T18:06:47.554Z,48.00
2018-03-21T18:07:47.516Z,48.00
2018-03-21T18:08:48.490Z,48.00
2018-03-21T18:09:47.509Z,48.00
2018-03-21T18:10:47.445Z,48.00
2018-03-21T18:11:47.420Z,48.00
2018-03-21T18:12:47.439Z,44.00
2018-03-21T18:13:47.369Z,44.00
2018-03-21T18:14:48.013Z,44.00
2018-03-21T18:15:48.047Z,44.00
2018-03-21T18:16:47.300Z,44.00
2018-03-21T18:17:47.274Z,44.00
2018-03-21T18:18:47.331Z,44.00
2018-03-21T18:19:47.241Z,44.00
2018-03-21T18:20:47.234Z,44.00
2018-03-21T18:21:47.212Z,40.00
2018-03-21T18:22:47.164Z,44.00
2018-03-21T18:23:47.134Z,40.00
2018-03-21T18:24:47.136Z,44.00
2018-03-21T18:25:47.120Z,40.00
2018-03-21T18:26:47.058Z,44.00
2018-03-21T18:27:47.047Z,40.00
2018-03-21T18:28:47.031Z,44.00
2018-03-21T18:29:47.030Z,40.00
2018-03-21T18:30:46.967Z,44.00
2018-03-21T18:31:47.513Z,44.00
2018-03-21T18:32:46.926Z,44.00
2018-03-21T18:33:46.941Z,44.00
2018-03-21T18:34:46.882Z,44.00
2018-03-21T18:35:47.527Z,44.00
2018-03-21T18:36:46.840Z,40.00
2018-03-21T18:37:48.489Z,40.00
2018-03-21T18:41:52.839Z,40.00
2018-03-21T18:42:52.835Z,44.00
2018-03-21T18:44:48.758Z,40.00
2018-03-21T18:45:48.693Z,40.00
2018-03-21T18:47:44.759Z,40.00
2018-03-21T18:48:45.094Z,40.00
2018-03-21T18:50:37.820Z,40.00
2018-03-21T18:51:37.804Z,40.00
2018-03-21T18:53:32.306Z,36.00
2018-03-21T18:54:32.716Z,40.00
2018-03-21T18:56:27.424Z,36.00
2018-03-21T18:57:27.412Z,36.00
2018-03-21T18:58:28.029Z,36.00
2018-03-21T18:59:27.352Z,36.00
2018-03-21T19:00:27.394Z,36.00
2018-03-21T19:01:27.309Z,36.00
2018-03-21T19:02:27.284Z,32.00
2018-03-21T19:03:27.284Z,36.00
2018-03-21T19:04:27.244Z,36.00
2018-03-21T19:05:27.214Z,32.00
2018-03-21T19:06:27.225Z,32.00
2018-03-21T19:07:27.174Z,32.00
2018-03-21T19:08:27.175Z,36.00
2018-03-21T19:09:27.153Z,36.00
2018-03-21T19:10:27.128Z,36.00
2018-03-21T19:11:27.076Z,32.00
2018-03-21T19:12:27.058Z,32.00
2018-03-21T19:13:27.064Z,32.00
2018-03-21T19:14:28.035Z,32.00
2018-03-21T19:15:26.994Z,32.00
2018-03-21T19:16:27.502Z,32.00
2018-03-21T19:17:27.542Z,32.00
2018-03-21T19:18:26.946Z,32.00
2018-03-21T19:19:26.956Z,32.00
2018-03-21T19:20:26.883Z,32.00
2018-03-21T19:21:26.897Z,32.00
2018-03-21T19:22:26.845Z,32.00
2018-03-21T19:23:26.803Z,32.00
2018-03-21T19:24:26.768Z,32.00
2018-03-21T19:25:26.771Z,32.00
2018-03-21T19:26:26.719Z,32.00
2018-03-21T19:27:26.723Z,32.00
2018-03-21T19:28:26.699Z,32.00
2018-03-21T19:29:26.647Z,28.00
2018-03-21T19:30:26.673Z,32.00
2018-03-21T19:31:26.613Z,32.00
2018-03-21T19:32:26.575Z,32.00
2018-03-21T19:33:26.559Z,28.00
2018-03-21T19:34:26.537Z,28.00
2018-03-21T19:35:26.507Z,32.00
2018-03-21T19:36:28.021Z,32.00
2018-03-21T19:37:26.474Z,32.00
2018-03-21T19:38:26.686Z,28.00
2018-03-21T19:39:27.001Z,28.00
2018-03-21T19:40:26.414Z,28.00
2018-03-21T19:41:26.363Z,28.00
2018-03-21T19:42:33.030Z,28.00
2018-03-21T19:43:27.015Z,28.00
2018-03-21T19:44:26.321Z,28.00
2018-03-21T19:45:26.271Z,28.00
2018-03-21T19:46:26.268Z,28.00
2018-03-21T19:47:26.305Z,28.00
2018-03-21T19:48:26.192Z,28.00
2018-03-21T19:49:26.186Z,28.00
2018-03-21T19:50:26.226Z,24.00
2018-03-21T19:51:26.112Z,28.00
2018-03-21T19:52:26.207Z,24.00
2018-03-21T19:53:26.100Z,24.00
2018-03-21T19:54:26.108Z,24.00
2018-03-21T19:55:26.019Z,252.00
2018-03-21T19:56:26.010Z,0.00
2018-03-21T19:57:26.004Z,0.00
2018-03-21T19:58:25.972Z,0.00
2018-03-21T19:59:25.967Z,0.00
2018-03-21T20:00:25.941Z,0.00
2018-03-21T20:01:25.896Z,0.00
2018-03-21T20:02:25.874Z,0.00
2018-03-21T20:03:25.833Z,0.00
2018-03-21T20:04:25.847Z,0.00
2018-03-21T20:05:25.787Z,0.00
2018-03-21T20:06:25.798Z,0.00
2018-03-21T20:07:25.761Z,0.00
2018-03-21T20:08:26.519Z,0.00
2018-03-21T20:09:25.727Z,0.00
2018-03-21T20:10:25.677Z,0.00
2018-03-21T20:11:25.678Z,0.00
2018-03-21T20:12:25.611Z,0.00
2018-03-21T20:13:25.620Z,0.00
2018-03-21T20:14:25.594Z,0.00
2018-03-21T20:15:25.555Z,0.00
2018-03-21T20:16:25.538Z,0.00
2018-03-21T20:17:26.012Z,0.00
2018-03-21T20:18:25.480Z,0.00
2018-03-21T20:19:25.451Z,0.00
2018-03-21T20:20:25.479Z,0.00
2018-03-21T20:21:25.439Z,0.00
2018-03-21T20:22:25.388Z,0.00
2018-03-21T20:23:25.394Z,0.00
2018-03-21T20:24:25.349Z,0.00
2018-03-21T20:25:25.343Z,0.00
2018-03-21T20:26:25.339Z,0.00
2018-03-21T20:27:25.271Z,0.00
2018-03-21T20:28:25.276Z,0.00
2018-03-21T20:29:25.224Z,0.00
2018-03-21T20:30:27.020Z,0.00
2018-03-21T20:31:25.219Z,0.00
2018-03-21T20:32:26.037Z,0.00
2018-03-21T20:33:25.117Z,0.00
2018-03-21T20:34:25.141Z,0.00
2018-03-21T20:35:25.746Z,0.00
2018-03-21T20:36:25.070Z,0.00
2018-03-21T20:37:26.026Z,0.00
2018-03-21T20:38:25.045Z,0.00
2018-03-21T20:39:25.059Z,0.00
2018-03-21T20:40:25.575Z,0.00
2018-03-21T20:41:24.941Z,0.00
2018-03-21T20:42:24.961Z,0.00
2018-03-21T20:43:24.915Z,0.00
2018-03-21T20:44:24.879Z,0.00
2018-03-21T20:45:24.874Z,0.00
2018-03-21T20:46:24.855Z,0.00
2018-03-21T20:47:24.815Z,0.00
2018-03-21T20:48:24.772Z,0.00
2018-03-21T20:49:24.790Z,0.00
2018-03-21T20:50:24.736Z,0.00
2018-03-21T20:51:24.728Z,0.00
2018-03-21T20:52:24.729Z,0.00
2018-03-21T20:53:24.656Z,0.00
2018-03-21T20:54:24.668Z,0.00
2018-03-21T20:55:24.629Z,0.00
2018-03-21T20:56:24.642Z,0.00
2018-03-21T20:57:24.592Z,0.00
2018-03-21T20:58:24.618Z,0.00
2018-03-21T20:59:24.750Z,0.00
2018-03-21T21:00:24.484Z,0.00
2018-03-21T21:01:27.269Z,0.00
2018-03-21T21:03:47.574Z,0.00
2018-03-21T21:04:47.039Z,0.00
2018-03-21T21:05:47.018Z,0.00
2018-03-21T21:06:46.994Z,0.00
2018-03-21T21:07:46.996Z,0.00
2018-03-21T21:08:46.950Z,0.00
2018-03-21T21:09:46.945Z,0.00
2018-03-21T21:10:46.901Z,0.00
2018-03-21T21:11:46.871Z,0.00
2018-03-21T21:12:46.856Z,0.00
2018-03-21T21:13:46.833Z,0.00
2018-03-21T21:14:46.805Z,0.00
2018-03-21T21:15:46.789Z,0.00
2018-03-21T21:16:46.748Z,0.00
2018-03-21T21:17:46.735Z,0.00
2018-03-21T21:18:46.713Z,0.00
2018-03-21T21:19:46.689Z,0.00
2018-03-21T21:20:46.662Z,0.00
2018-03-21T21:21:46.633Z,0.00
2018-03-21T21:22:46.615Z,0.00
2018-03-21T21:23:46.599Z,0.00
2018-03-21T21:24:46.621Z,0.00
2018-03-21T21:25:46.561Z,0.00
2018-03-21T21:26:46.522Z,0.00
2018-03-21T21:27:46.513Z,0.00
2018-03-21T21:28:46.495Z,0.00
2018-03-21T21:29:46.455Z,0.00
2018-03-21T21:30:46.442Z,0.00
2018-03-21T21:31:46.433Z,0.00
2018-03-21T21:32:46.390Z,0.00
2018-03-21T21:33:46.360Z,0.00
2018-03-21T21:34:46.345Z,0.00
2018-03-21T21:35:46.321Z,0.00
2018-03-21T21:36:46.281Z,0.00
2018-03-21T21:37:46.275Z,0.00
2018-03-21T21:38:46.248Z,0.00
2018-03-21T21:39:46.217Z,0.00
2018-03-21T21:40:46.199Z,0.00
2018-03-21T21:41:46.177Z,0.00
2018-03-21T21:42:46.148Z,0.00
2018-03-21T21:43:46.123Z,0.00
2018-03-21T21:44:46.094Z,0.00
2018-03-21T21:45:46.096Z,0.00
2018-03-21T21:46:46.053Z,0.00
2018-03-21T21:47:46.035Z,0.00
2018-03-21T21:48:46.001Z,0.00
2018-03-21T21:49:45.987Z,0.00
2018-03-21T21:50:45.979Z,0.00
2018-03-21T21:51:45.957Z,0.00
2018-03-21T21:52:45.929Z,0.00
2018-03-21T21:53:45.877Z,0.00
2018-03-21T21:54:45.879Z,0.00
2018-03-21T21:55:45.843Z,0.00
2018-03-21T21:56:46.470Z,0.00
2018-03-21T21:57:45.794Z,0.00
2018-03-21T21:58:45.781Z,0.00
2018-03-21T21:59:45.745Z,0.00
2018-03-21T22:00:45.724Z,0.00
2018-03-21T22:01:45.697Z,0.00
2018-03-21T22:02:45.708Z,0.00
2018-03-21T22:03:45.654Z,0.00
2018-03-21T22:04:45.631Z,0.00
2018-03-21T22:05:45.608Z,0.00
2018-03-21T22:06:45.582Z,0.00
2018-03-21T22:07:45.558Z,0.00
2018-03-21T22:08:45.556Z,0.00
2018-03-21T22:09:45.506Z,0.00
2018-03-21T22:10:45.481Z,0.00
2018-03-21T22:11:45.472Z,0.00
2018-03-21T22:12:45.440Z,0.00
2018-03-21T22:13:45.421Z,0.00
2018-03-21T22:14:45.451Z,0.00
2018-03-21T22:15:45.407Z,0.00
2018-03-21T22:16:45.383Z,0.00
2018-03-21T22:17:45.319Z,0.00
2018-03-21T22:18:45.340Z,0.00
2018-03-21T22:19:45.299Z,0.00
2018-03-21T22:20:45.261Z,0.00
2018-03-21T22:21:45.251Z,0.00
2018-03-21T22:22:45.219Z,0.00
2018-03-21T22:23:45.198Z,0.00
2018-03-21T22:24:45.161Z,0.00
2018-03-21T22:25:45.171Z,0.00
2018-03-21T22:26:45.101Z,0.00
2018-03-21T22:27:45.074Z,0.00
2018-03-21T22:28:45.051Z,0.00
2018-03-21T22:29:45.053Z,0.00
2018-03-21T22:30:45.003Z,0.00
2018-03-21T22:31:44.983Z,0.00
2018-03-21T22:32:44.981Z,0.00
2018-03-21T22:33:44.940Z,0.00
2018-03-21T22:34:44.912Z,0.00
2018-03-21T22:35:44.944Z,0.00
2018-03-21T22:36:44.904Z,0.00
2018-03-21T22:37:48.188Z,0.00
2018-03-21T22:38:44.840Z,0.00
2018-03-21T22:39:44.836Z,0.00
2018-03-21T22:40:44.796Z,0.00
2018-03-21T22:41:44.762Z,0.00
2018-03-21T22:42:44.790Z,0.00
2018-03-21T22:43:44.704Z,0.00
2018-03-21T22:44:44.680Z,0.00
2018-03-21T22:45:44.672Z,0.00
2018-03-21T22:46:44.634Z,0.00
2018-03-21T22:47:44.610Z,0.00
2018-03-21T22:48:44.581Z,0.00
2018-03-21T22:49:44.567Z,0.00
2018-03-21T22:50:44.533Z,0.00
2018-03-21T22:51:44.538Z,0.00
2018-03-21T22:52:44.494Z,0.00
2018-03-21T22:53:44.489Z,0.00
2018-03-21T22:54:44.442Z,0.00
2018-03-21T22:55:44.419Z,0.00
2018-03-21T22:56:45.613Z,0.00
2018-03-21T22:57:44.367Z,0.00
2018-03-21T22:58:44.369Z,0.00
2018-03-21T22:59:44.336Z,0.00
2018-03-21T23:00:44.296Z,0.00
2018-03-21T23:01:44.281Z,0.00
2018-03-21T23:02:45.980Z,0.00
2018-03-21T23:03:44.226Z,0.00
2018-03-21T23:04:44.200Z,0.00
2018-03-21T23:05:44.186Z,0.00
2018-03-21T23:06:44.162Z,0.00
2018-03-21T23:07:44.120Z,0.00
2018-03-21T23:08:44.106Z,0.00
2018-03-21T23:09:44.082Z,0.00
2018-03-21T23:10:44.056Z,0.00
2018-03-21T23:11:44.036Z,0.00
2018-03-21T23:12:44.011Z,0.00
2018-03-21T23:13:44.000Z,0.00
2018-03-21T23:14:43.957Z,0.00
2018-03-21T23:15:43.943Z,0.00
2018-03-21T23:16:43.922Z,0.00
2018-03-21T23:17:43.890Z,0.00
2018-03-21T23:18:43.864Z,0.00
2018-03-21T23:19:43.865Z,0.00
2018-03-21T23:20:43.820Z,0.00
2018-03-21T23:21:43.822Z,0.00
2018-03-21T23:22:43.790Z,0.00
2018-03-21T23:23:43.756Z,0.00
2018-03-21T23:24:44.551Z,0.00
2018-03-21T23:25:43.736Z,0.00
2018-03-21T23:26:43.676Z,0.00
2018-03-21T23:27:43.651Z,0.00
2018-03-21T23:28:43.640Z,0.00
2018-03-21T23:29:43.624Z,0.00
2018-03-21T23:30:43.592Z,0.00
2018-03-21T23:31:43.560Z,0.00
2018-03-21T23:32:43.570Z,0.00
2018-03-21T23:33:43.515Z,0.00
2018-03-21T23:34:43.486Z,0.00
2018-03-21T23:35:43.595Z,0.00
2018-03-21T23:36:43.458Z,0.00
2018-03-21T23:37:43.415Z,0.00
2018-03-21T23:38:43.401Z,0.00
2018-03-21T23:39:43.416Z,0.00
2018-03-21T23:40:43.336Z,0.00
2018-03-21T23:41:43.314Z,0.00
2018-03-21T23:42:43.328Z,0.00
2018-03-21T23:43:43.280Z,0.00
2018-03-21T23:44:43.251Z,0.00
2018-03-21T23:45:43.249Z,0.00
2018-03-21T23:46:44.082Z,0.00
2018-03-21T23:47:43.230Z,0.00
2018-03-21T23:48:43.210Z,0.00
2018-03-21T23:49:43.141Z,0.00
2018-03-21T23:50:43.093Z,0.00
2018-03-21T23:51:43.077Z,0.00
2018-03-21T23:52:43.710Z,0.00
2018-03-21T23:53:43.022Z,0.00
2018-03-21T23:54:43.010Z,0.00
2018-03-21T23:55:43.034Z,0.00
2018-03-21T23:56:42.990Z,0.00
2018-03-21T23:57:43.024Z,0.00
2018-03-21T23:58:42.979Z,0.00
2018-03-21T23:59:42.888Z,0.00
